createdAt,value
2019-04-27T00:01:10.668Z,3.83
2019-04-27T00:03:55.757Z,4.10
2019-04-27T00:06:24.357Z,4.17
2019-04-27T00:08:56.286Z,3.67
2019-04-27T00:11:33.075Z,4.13
2019-04-27T00:14:14.913Z,3.90
2019-04-27T00:17:21.077Z,3.67
2019-04-27T00:20:10.117Z,4.07
2019-04-27T00:22:43.565Z,4.23
2019-04-27T00:25:13.104Z,3.90
2019-04-27T00:27:43.534Z,4.50
2019-04-27T00:30:13.821Z,4.00
2019-04-27T00:32:43.314Z,4.33
2019-04-27T00:35:13.829Z,4.00
2019-04-27T00:37:53.169Z,4.73
2019-04-27T00:40:29.761Z,4.73
2019-04-27T00:42:58.371Z,3.97
2019-04-27T00:45:27.036Z,4.40
2019-04-27T00:47:59.521Z,4.63
2019-04-27T00:50:26.046Z,3.07
2019-04-27T00:52:54.881Z,3.90
2019-04-27T00:55:23.510Z,3.47
2019-04-27T00:58:04.268Z,3.47
2019-04-27T01:01:10.360Z,3.73
2019-04-27T01:03:58.052Z,3.83
2019-04-27T01:06:27.472Z,3.80
2019-04-27T01:08:56.077Z,4.47
2019-04-27T01:11:24.939Z,3.40
2019-04-27T01:13:53.813Z,3.30
2019-04-27T01:16:24.165Z,3.53
2019-04-27T01:18:52.751Z,3.43
2019-04-27T01:21:21.325Z,3.47
2019-04-27T01:23:50.312Z,3.60
2019-04-27T01:26:30.984Z,3.63
2019-04-27T01:29:06.121Z,3.90
2019-04-27T01:31:34.695Z,3.33
2019-04-27T01:34:03.401Z,4.17
2019-04-27T01:36:31.984Z,3.83
2019-04-27T01:39:00.593Z,3.30
2019-04-27T01:41:29.234Z,3.57
2019-04-27T01:43:59.105Z,3.77
2019-04-27T01:46:29.446Z,2.97
2019-04-27T01:48:59.081Z,3.50
2019-04-27T01:51:29.333Z,3.57
2019-04-27T01:53:59.366Z,3.47
2019-04-27T01:56:29.384Z,3.00
2019-04-27T01:58:59.531Z,3.17
2019-04-27T02:01:36.387Z,3.00
2019-04-27T02:04:14.242Z,3.10
2019-04-27T02:06:42.921Z,3.73
2019-04-27T02:09:12.497Z,3.63
2019-04-27T02:11:41.082Z,3.40
2019-04-27T02:14:09.737Z,3.70
2019-04-27T02:16:39.182Z,3.33
2019-04-27T02:19:11.057Z,4.17
2019-04-27T02:21:39.179Z,3.83
2019-04-27T02:24:09.735Z,3.67
2019-04-27T02:26:39.856Z,3.60
2019-04-27T02:29:30.947Z,3.37
2019-04-27T02:32:24.688Z,3.77
2019-04-27T02:34:56.597Z,3.47
2019-04-27T02:37:25.185Z,3.70
2019-04-27T02:39:53.776Z,3.63
2019-04-27T02:42:24.028Z,3.83
2019-04-27T02:44:52.695Z,4.23
2019-04-27T02:47:21.266Z,3.20
2019-04-27T02:49:50.724Z,3.17
2019-04-27T02:52:44.992Z,2.80
2019-04-27T02:55:13.694Z,2.93
2019-04-27T02:57:42.299Z,3.87
2019-04-27T03:00:12.466Z,2.70
2019-04-27T03:02:48.078Z,3.63
2019-04-27T03:05:21.919Z,3.00
2019-04-27T03:07:50.560Z,3.50
2019-04-27T03:10:19.899Z,3.63
2019-04-27T03:12:54.385Z,3.70
2019-04-27T03:15:30.711Z,4.17
2019-04-27T03:18:19.353Z,3.70
2019-04-27T03:20:53.987Z,3.93
2019-04-27T03:23:22.802Z,3.60
2019-04-27T03:26:01.626Z,3.80
2019-04-27T03:28:30.226Z,3.63
2019-04-27T03:31:02.598Z,3.83
2019-04-27T03:33:32.587Z,3.67
2019-04-27T03:36:02.547Z,4.00
2019-04-27T03:38:30.259Z,3.90
2019-04-27T03:41:00.479Z,3.40
2019-04-27T03:43:30.243Z,4.30
2019-04-27T03:46:00.425Z,3.60
2019-04-27T03:48:29.623Z,4.20
2019-04-27T03:51:23.468Z,4.97
2019-04-27T03:54:23.244Z,4.07
2019-04-27T03:57:13.925Z,5.20
2019-04-27T03:59:59.699Z,5.47
2019-04-27T04:02:30.400Z,5.73
2019-04-27T04:04:59.845Z,4.90
2019-04-27T04:07:30.019Z,5.60
2019-04-27T04:10:00.301Z,6.90
2019-04-27T04:12:34.930Z,5.97
2019-04-27T04:15:04.295Z,6.87
2019-04-27T04:17:32.904Z,7.70
2019-04-27T04:20:02.318Z,7.33
2019-04-27T04:22:31.569Z,8.60
2019-04-27T04:25:00.358Z,7.30
2019-04-27T04:27:29.911Z,7.50
2019-04-27T04:29:59.393Z,9.20
2019-04-27T04:32:29.769Z,9.30
2019-04-27T04:35:21.144Z,11.43
2019-04-27T04:37:53.028Z,11.90
2019-04-27T04:40:23.801Z,10.93
2019-04-27T04:43:11.486Z,11.43
2019-04-27T04:46:02.169Z,10.00
2019-04-27T04:48:30.764Z,11.30
2019-04-27T04:51:00.007Z,11.00
2019-04-27T04:53:29.385Z,12.50
2019-04-27T04:56:00.130Z,14.13
2019-04-27T04:58:29.429Z,11.17
2019-04-27T05:00:59.621Z,11.67
2019-04-27T05:03:28.733Z,11.00
2019-04-27T05:05:58.796Z,11.17
2019-04-27T05:08:29.205Z,11.77
2019-04-27T05:10:59.675Z,13.57
2019-04-27T05:13:29.319Z,12.23
2019-04-27T05:15:58.873Z,12.33
2019-04-27T05:18:29.149Z,11.70
2019-04-27T05:21:22.113Z,12.47
2019-04-27T05:23:50.712Z,11.87
2019-04-27T05:26:20.771Z,9.77
2019-04-27T05:28:49.600Z,10.20
2019-04-27T05:31:19.460Z,9.33
2019-04-27T05:33:49.061Z,9.60
2019-04-27T05:36:19.256Z,9.03
2019-04-27T05:38:49.714Z,8.30
2019-04-27T05:41:18.774Z,7.30
2019-04-27T05:44:07.592Z,7.90
2019-04-27T05:46:54.917Z,8.33
2019-04-27T05:49:29.490Z,6.10
2019-04-27T05:51:59.433Z,6.27
2019-04-27T05:54:29.445Z,6.53
2019-04-27T05:56:59.193Z,7.17
2019-04-27T05:59:29.829Z,5.57
2019-04-27T06:01:59.274Z,4.77
2019-04-27T06:04:29.130Z,4.63
2019-04-27T06:07:00.514Z,4.10
2019-04-27T06:09:28.957Z,4.00
2019-04-27T06:11:59.052Z,4.07
2019-04-27T06:14:29.251Z,3.70
2019-04-27T06:16:59.638Z,3.87
2019-04-27T06:19:29.105Z,4.13
2019-04-27T06:22:00.983Z,3.43
2019-04-27T06:24:29.756Z,2.90
2019-04-27T06:26:59.712Z,3.00
2019-04-27T06:29:29.228Z,2.73
2019-04-27T06:31:59.389Z,2.83
2019-04-27T06:34:30.557Z,2.47
2019-04-27T06:36:59.974Z,2.63
2019-04-27T06:39:29.801Z,3.77
2019-04-27T06:41:59.021Z,2.77
2019-04-27T06:44:29.410Z,3.57
2019-04-27T06:46:59.159Z,3.50
2019-04-27T06:49:29.492Z,3.83
2019-04-27T06:51:58.675Z,3.87
2019-04-27T06:54:28.845Z,3.80
2019-04-27T06:56:59.196Z,3.80
2019-04-27T06:59:28.847Z,4.17
2019-04-27T07:01:59.287Z,3.60
2019-04-27T07:04:29.418Z,3.83
2019-04-27T07:06:59.483Z,4.30
2019-04-27T07:09:29.521Z,3.83
2019-04-27T07:11:59.303Z,3.70
2019-04-27T07:14:29.448Z,4.00
2019-04-27T07:16:59.167Z,4.20
2019-04-27T07:19:28.663Z,4.43
2019-04-27T07:22:00.169Z,4.67
2019-04-27T07:24:29.202Z,4.57
2019-04-27T07:26:59.670Z,4.47
2019-04-27T07:29:29.232Z,4.00
2019-04-27T07:31:59.698Z,6.17
2019-04-27T07:34:29.087Z,5.23
2019-04-27T07:36:59.795Z,5.57
2019-04-27T07:39:29.342Z,4.77
2019-04-27T07:41:58.565Z,4.83
2019-04-27T07:44:43.717Z,4.20
2019-04-27T07:47:21.005Z,4.87
2019-04-27T07:49:49.813Z,4.70
2019-04-27T07:52:20.469Z,3.63
2019-04-27T07:54:49.303Z,5.10
2019-04-27T07:57:19.710Z,5.07
2019-04-27T07:59:50.166Z,4.63
2019-04-27T08:02:19.216Z,3.83
2019-04-27T08:04:49.810Z,4.93
2019-04-27T08:07:19.661Z,5.00
2019-04-27T08:09:49.605Z,4.40
2019-04-27T08:12:38.611Z,3.63
2019-04-27T08:15:08.879Z,3.47
2019-04-27T08:17:37.857Z,4.73
2019-04-27T08:20:06.497Z,4.27
2019-04-27T08:22:35.329Z,5.10
2019-04-27T08:25:04.011Z,4.80
2019-04-27T08:27:54.579Z,4.70
2019-04-27T08:30:42.272Z,4.57
2019-04-27T08:33:10.987Z,5.07
2019-04-27T08:35:40.691Z,4.97
2019-04-27T08:38:09.533Z,4.53
2019-04-27T08:40:39.373Z,5.07
2019-04-27T08:43:09.234Z,5.80
2019-04-27T08:45:39.200Z,6.43
2019-04-27T08:48:09.320Z,6.13
2019-04-27T08:50:41.810Z,5.83
2019-04-27T08:53:09.818Z,6.20
2019-04-27T08:55:39.513Z,6.30
2019-04-27T08:58:09.958Z,4.77
2019-04-27T09:00:39.097Z,5.63
2019-04-27T09:03:09.527Z,5.90
2019-04-27T09:05:39.028Z,5.23
2019-04-27T09:08:29.913Z,5.40
2019-04-27T09:11:10.261Z,5.60
2019-04-27T09:13:58.947Z,6.10
2019-04-27T09:16:59.650Z,4.40
2019-04-27T09:19:27.018Z,4.20
2019-04-27T09:22:16.529Z,3.37
2019-04-27T09:24:45.456Z,4.00
2019-04-27T09:27:17.130Z,3.40
2019-04-27T09:29:44.616Z,3.97
2019-04-27T09:32:13.530Z,3.77
2019-04-27T09:34:42.127Z,3.27
2019-04-27T09:37:11.000Z,3.53
2019-04-27T09:39:39.608Z,4.30
2019-04-27T09:42:08.213Z,5.23
2019-04-27T09:44:37.213Z,4.30
2019-04-27T09:47:06.235Z,3.67
2019-04-27T09:49:36.665Z,3.57
2019-04-27T09:52:06.309Z,4.77
2019-04-27T09:54:36.596Z,3.83
2019-04-27T09:57:07.011Z,3.77
2019-04-27T09:59:39.427Z,4.67
2019-04-27T10:02:08.434Z,4.37
2019-04-27T10:04:36.720Z,4.23
2019-04-27T10:07:06.231Z,5.13
2019-04-27T10:09:36.817Z,5.10
2019-04-27T10:12:07.436Z,5.37
2019-04-27T10:14:36.342Z,4.27
2019-04-27T10:17:04.941Z,5.23
2019-04-27T10:19:46.188Z,4.10
2019-04-27T10:22:15.947Z,4.37
2019-04-27T10:24:44.625Z,4.37
2019-04-27T10:27:13.204Z,4.70
2019-04-27T10:29:41.876Z,4.00
2019-04-27T10:32:10.495Z,4.53
2019-04-27T10:34:47.748Z,4.33
2019-04-27T10:37:44.478Z,4.77
2019-04-27T10:40:13.073Z,2.70
2019-04-27T10:42:41.742Z,3.20
2019-04-27T10:45:11.990Z,3.83
2019-04-27T10:47:56.172Z,2.87
2019-04-27T10:50:10.909Z,2.77
2019-04-27T10:52:52.419Z,2.70
2019-04-27T10:55:09.870Z,2.60
2019-04-27T10:57:38.489Z,2.37
2019-04-27T11:00:08.572Z,2.13
2019-04-27T11:02:37.167Z,2.13
2019-04-27T11:05:13.351Z,2.10
2019-04-27T11:07:42.217Z,2.57
2019-04-27T11:10:10.993Z,2.33
2019-04-27T11:12:39.589Z,4.00
2019-04-27T11:15:08.351Z,3.60
2019-04-27T11:17:37.176Z,3.13
2019-04-27T11:20:06.362Z,3.80
2019-04-27T11:22:36.317Z,2.97
2019-04-27T11:25:06.217Z,3.13
2019-04-27T11:27:35.102Z,3.53
2019-04-27T11:30:04.319Z,3.70
2019-04-27T11:32:32.950Z,3.07
2019-04-27T11:35:12.281Z,3.40
2019-04-27T11:37:40.868Z,1.77
2019-04-27T11:40:09.481Z,2.17
2019-04-27T11:42:38.079Z,2.93
2019-04-27T11:45:06.917Z,1.90
2019-04-27T11:47:36.476Z,2.00
2019-04-27T11:50:06.375Z,2.07
2019-04-27T11:52:35.598Z,1.83
2019-04-27T11:55:05.787Z,2.40
2019-04-27T11:57:35.730Z,2.57
2019-04-27T12:00:07.475Z,1.80
2019-04-27T12:02:36.105Z,1.97
2019-04-27T12:05:07.699Z,2.50
2019-04-27T12:07:35.929Z,1.70
2019-04-27T12:10:05.769Z,2.93
2019-04-27T12:12:36.266Z,3.20
2019-04-27T12:15:05.761Z,2.97
2019-04-27T12:17:35.788Z,3.33
2019-04-27T12:20:05.589Z,3.23
2019-04-27T12:22:34.220Z,3.87
2019-04-27T12:25:02.936Z,3.23
2019-04-27T12:27:41.223Z,2.93
2019-04-27T12:30:23.676Z,3.33
2019-04-27T12:32:52.261Z,2.93
2019-04-27T12:35:20.835Z,3.00
2019-04-27T12:37:49.423Z,2.70
2019-04-27T12:40:18.021Z,2.53
2019-04-27T12:42:46.601Z,2.47
2019-04-27T12:45:17.975Z,2.50
2019-04-27T12:47:46.454Z,2.07
2019-04-27T12:50:22.064Z,2.63
2019-04-27T12:52:53.610Z,2.83
2019-04-27T12:55:40.008Z,3.47
2019-04-27T12:58:17.130Z,3.13
2019-04-27T13:00:47.554Z,3.40
2019-04-27T13:03:16.174Z,3.27
2019-04-27T13:05:44.788Z,3.20
2019-04-27T13:08:13.397Z,3.30
2019-04-27T13:10:41.956Z,3.50
2019-04-27T13:13:10.555Z,3.83
2019-04-27T13:15:39.386Z,4.27
2019-04-27T13:18:08.258Z,3.40
2019-04-27T13:20:36.877Z,3.00
2019-04-27T13:23:07.199Z,3.57
2019-04-27T13:25:36.777Z,2.97
2019-04-27T13:28:06.138Z,3.33
2019-04-27T13:30:35.827Z,3.70
2019-04-27T13:33:05.913Z,3.33
2019-04-27T13:35:34.637Z,4.00
2019-04-27T13:38:03.299Z,3.77
2019-04-27T13:40:35.715Z,3.47
2019-04-27T13:43:09.945Z,4.13
2019-04-27T13:46:08.154Z,3.70
2019-04-27T13:48:56.226Z,3.60
2019-04-27T13:51:42.804Z,4.40
2019-04-27T13:54:18.857Z,3.83
2019-04-27T13:56:41.739Z,3.97
2019-04-27T13:59:10.809Z,3.33
2019-04-27T14:01:40.647Z,3.10
2019-04-27T14:04:09.248Z,2.43
2019-04-27T14:06:37.815Z,2.63
2019-04-27T14:09:09.044Z,2.87
2019-04-27T14:11:39.168Z,3.63
2019-04-27T14:14:07.823Z,2.67
2019-04-27T14:16:36.421Z,3.03
2019-04-27T14:19:05.160Z,3.20
2019-04-27T14:21:33.777Z,4.03
2019-04-27T14:24:05.597Z,4.27
2019-04-27T14:26:34.249Z,4.47
2019-04-27T14:29:02.883Z,3.17
2019-04-27T14:31:31.488Z,3.10
2019-04-27T14:34:00.091Z,4.33
2019-04-27T14:36:29.235Z,4.17
2019-04-27T14:38:58.879Z,3.93
2019-04-27T14:41:28.186Z,3.13
2019-04-27T14:44:06.074Z,3.90
2019-04-27T14:46:30.498Z,3.50
2019-04-27T14:48:59.324Z,3.73
2019-04-27T14:51:28.009Z,3.30
2019-04-27T14:53:56.600Z,3.93
2019-04-27T14:56:25.195Z,3.40
2019-04-27T14:58:53.792Z,4.00
2019-04-27T15:01:41.995Z,3.43
2019-04-27T15:04:11.614Z,3.47
2019-04-27T15:06:40.340Z,3.33
2019-04-27T15:09:08.953Z,3.83
2019-04-27T15:11:37.631Z,4.17
2019-04-27T15:14:06.528Z,3.40
2019-04-27T15:16:37.991Z,4.07
2019-04-27T15:19:13.192Z,3.97
2019-04-27T15:21:41.794Z,4.50
2019-04-27T15:24:13.587Z,3.77
2019-04-27T15:26:40.144Z,4.87
2019-04-27T15:29:12.040Z,3.73
2019-04-27T15:31:45.109Z,2.87
2019-04-27T15:34:35.703Z,2.00
2019-04-27T15:37:19.486Z,2.50
2019-04-27T15:40:10.017Z,3.37
2019-04-27T15:42:51.199Z,3.07
2019-04-27T15:45:20.635Z,2.47
2019-04-27T15:47:54.222Z,2.27
2019-04-27T15:50:18.684Z,1.67
2019-04-27T15:52:48.767Z,1.77
2019-04-27T15:55:31.661Z,2.23
2019-04-27T15:57:48.791Z,2.33
2019-04-27T16:00:23.623Z,2.10
2019-04-27T16:02:52.775Z,2.83
2019-04-27T16:05:28.679Z,3.57
2019-04-27T16:07:52.616Z,3.10
2019-04-27T16:10:21.238Z,3.17
2019-04-27T16:13:05.731Z,3.00
2019-04-27T16:15:39.522Z,3.87
2019-04-27T16:18:08.822Z,3.23
2019-04-27T16:20:38.119Z,4.47
2019-04-27T16:23:08.752Z,2.90
2019-04-27T16:25:46.082Z,2.77
2019-04-27T16:28:11.512Z,2.50
2019-04-27T16:30:39.154Z,2.43
2019-04-27T16:33:08.658Z,2.07
2019-04-27T16:35:38.723Z,2.33
2019-04-27T16:38:42.858Z,3.30
2019-04-27T16:41:11.549Z,1.97
2019-04-27T16:43:40.199Z,2.20
2019-04-27T16:46:09.128Z,2.40
2019-04-27T16:48:38.993Z,2.27
2019-04-27T16:51:08.734Z,2.73
2019-04-27T16:53:41.148Z,2.43
2019-04-27T16:56:28.492Z,2.60
2019-04-27T16:59:05.402Z,2.20
2019-04-27T17:01:30.402Z,3.10
2019-04-27T17:03:59.557Z,2.37
2019-04-27T17:06:29.512Z,2.73
2019-04-27T17:09:05.595Z,3.87
2019-04-27T17:11:29.782Z,2.23
2019-04-27T17:14:09.076Z,2.97
2019-04-27T17:16:48.947Z,2.47
2019-04-27T17:19:43.982Z,2.47
2019-04-27T17:22:14.596Z,2.87
2019-04-27T17:24:46.815Z,2.20
2019-04-27T17:27:16.366Z,1.97
2019-04-27T17:29:49.982Z,2.03
2019-04-27T17:32:30.360Z,1.73
2019-04-27T17:35:02.469Z,2.13
2019-04-27T17:37:29.927Z,2.27
2019-04-27T17:42:59.783Z,3.23
2019-04-27T17:45:30.460Z,3.03
2019-04-27T17:48:00.405Z,3.17
2019-04-27T17:50:28.034Z,3.73
2019-04-27T17:52:59.080Z,2.60
2019-04-27T17:55:27.978Z,2.50
2019-04-27T17:58:00.549Z,2.60
2019-04-27T18:00:28.077Z,3.00
2019-04-27T18:02:57.960Z,3.33
2019-04-27T18:05:28.455Z,3.10
2019-04-27T18:07:58.001Z,2.90
2019-04-27T18:10:28.122Z,2.90
2019-04-27T18:12:58.252Z,3.10
2019-04-27T18:15:28.734Z,2.70
2019-04-27T18:17:59.268Z,1.97
2019-04-27T18:20:29.463Z,2.27
2019-04-27T18:23:03.961Z,2.70
2019-04-27T18:25:40.423Z,2.70
2019-04-27T18:28:22.476Z,2.40
2019-04-27T18:30:57.587Z,2.90
2019-04-27T18:33:28.338Z,2.17
2019-04-27T18:36:05.468Z,2.10
2019-04-27T18:38:35.339Z,2.30
2019-04-27T18:41:03.016Z,1.77
2019-04-27T18:43:32.738Z,2.20
2019-04-27T18:49:26.697Z,1.50
2019-04-27T18:52:04.355Z,1.93
2019-04-27T18:54:33.119Z,2.20
2019-04-27T18:57:04.805Z,2.17
2019-04-27T18:59:32.754Z,2.10
2019-04-27T19:02:02.561Z,2.37
2019-04-27T19:04:31.222Z,2.33
2019-04-27T19:07:03.065Z,2.00
2019-04-27T19:09:34.014Z,2.73
2019-04-27T19:12:02.634Z,2.33
2019-04-27T19:14:31.209Z,2.10
2019-04-27T19:17:03.696Z,2.20
2019-04-27T19:19:32.382Z,2.20
2019-04-27T19:22:00.964Z,1.77
2019-04-27T19:24:29.571Z,2.37
2019-04-27T19:27:16.247Z,2.40
2019-04-27T19:29:43.984Z,1.90
2019-04-27T19:32:12.687Z,2.57
2019-04-27T19:34:41.531Z,2.27
2019-04-27T19:37:10.153Z,2.20
2019-04-27T19:39:39.380Z,2.57
2019-04-27T19:42:08.174Z,1.83
2019-04-27T19:44:38.810Z,2.27
2019-04-27T19:47:07.061Z,1.60
2019-04-27T19:49:35.665Z,1.83
2019-04-27T19:52:04.513Z,1.70
2019-04-27T19:54:33.116Z,2.57
2019-04-27T19:57:01.737Z,1.70
2019-04-27T19:59:35.774Z,1.60
2019-04-27T20:02:08.787Z,1.73
2019-04-27T20:04:39.277Z,2.00
2019-04-27T20:07:10.337Z,2.13
2019-04-27T20:09:55.108Z,1.90
2019-04-27T20:12:23.724Z,1.60
2019-04-27T20:14:58.806Z,2.17
2019-04-27T20:17:30.906Z,1.90
2019-04-27T20:20:00.212Z,1.73
2019-04-27T20:22:48.165Z,2.07
2019-04-27T20:25:16.859Z,1.83
2019-04-27T20:27:49.111Z,1.90
2019-04-27T20:33:14.508Z,2.13
2019-04-27T20:35:43.136Z,1.90
2019-04-27T20:38:12.854Z,2.07
2019-04-27T20:40:41.939Z,2.60
2019-04-27T20:43:12.800Z,2.00
2019-04-27T20:45:41.350Z,2.40
2019-04-27T20:48:11.199Z,2.50
2019-04-27T20:50:41.198Z,2.47
2019-04-27T20:53:13.606Z,2.37
2019-04-27T20:55:42.201Z,2.37
2019-04-27T20:58:11.210Z,1.93
2019-04-27T21:00:41.849Z,2.47
2019-04-27T21:03:16.874Z,1.70
2019-04-27T21:06:07.345Z,1.97
2019-04-27T21:08:37.128Z,2.13
2019-04-27T21:11:05.740Z,2.07
2019-04-27T21:13:34.356Z,2.13
2019-04-27T21:16:02.948Z,3.00
2019-04-27T21:18:31.864Z,2.00
2019-04-27T21:21:01.285Z,1.60
2019-04-27T21:23:31.203Z,1.77
2019-04-27T21:26:01.924Z,2.50
2019-04-27T21:28:30.647Z,2.17
2019-04-27T21:30:59.240Z,1.90
2019-04-27T21:33:27.846Z,1.63
2019-04-27T21:35:56.447Z,2.53
2019-04-27T21:38:25.145Z,1.40
2019-04-27T21:40:53.732Z,1.20
2019-04-27T21:43:22.320Z,2.00
2019-04-27T21:45:51.147Z,1.87
2019-04-27T21:48:21.227Z,1.70
2019-04-27T21:50:51.654Z,2.43
2019-04-27T21:53:32.492Z,2.40
2019-04-27T21:56:06.163Z,1.90
2019-04-27T21:58:35.013Z,2.40
2019-04-27T22:01:17.446Z,3.10
2019-04-27T22:03:46.029Z,1.80
2019-04-27T22:06:14.876Z,1.90
2019-04-27T22:08:43.466Z,1.83
2019-04-27T22:11:12.066Z,2.10
2019-04-27T22:13:41.021Z,2.50
2019-04-27T22:16:11.126Z,2.33
2019-04-27T22:18:59.326Z,1.60
2019-04-27T22:21:27.929Z,1.57
2019-04-27T22:24:21.334Z,1.70
2019-04-27T22:26:51.642Z,1.50
2019-04-27T22:29:22.034Z,1.73
2019-04-27T22:31:51.610Z,1.23
2019-04-27T22:34:21.585Z,1.33
2019-04-27T22:36:50.230Z,1.40
2019-04-27T22:39:24.383Z,2.10
2019-04-27T22:42:08.433Z,1.50
2019-04-27T22:44:53.340Z,1.30
2019-04-27T22:47:21.917Z,1.30
2019-04-27T22:49:50.518Z,1.47
2019-04-27T22:52:19.105Z,2.23
2019-04-27T22:54:47.709Z,1.60
2019-04-27T22:57:23.281Z,1.13
2019-04-27T23:00:11.628Z,1.43
2019-04-27T23:02:45.277Z,1.60
2019-04-27T23:05:13.846Z,1.83
2019-04-27T23:07:42.683Z,1.03
2019-04-27T23:10:11.341Z,2.27
2019-04-27T23:12:41.813Z,1.83
2019-04-27T23:15:13.197Z,1.60
2019-04-27T23:17:53.198Z,1.30
2019-04-27T23:20:21.877Z,1.80
2019-04-27T23:22:50.460Z,1.17
2019-04-27T23:25:19.085Z,1.10
2019-04-27T23:27:47.663Z,1.30
2019-04-27T23:30:17.128Z,1.20
2019-04-27T23:32:47.388Z,1.40
2019-04-27T23:35:15.966Z,1.60
2019-04-27T23:37:44.548Z,1.67
2019-04-27T23:40:13.461Z,1.37
2019-04-27T23:42:42.046Z,1.93
2019-04-27T23:45:10.879Z,1.60
2019-04-27T23:47:39.493Z,1.97
2019-04-27T23:50:08.096Z,1.90
2019-04-27T23:52:54.545Z,1.87
2019-04-27T23:55:26.061Z,1.57
2019-04-27T23:57:54.664Z,1.13
